MSC Paola — 9HA2581 — position and weather

sailwx.info

Track history (hours):
 
Tides and Currents Weather Stations Pressure Air Temp Water Temp Dewpoint Dewpoint Depression Visibility Wind Speed Wind Dir Waves Ship Positions

MSC Paola

Last reported at 2016-Dec-09 07:32 UTC. Time now 2016-Dec-09 07:48 UTC.
Position N 39°37' W 073°53'.

Length 243 m; draft 9.7 m.

Type: Ship (hazmat cat A). MMSI: 248931000.

Date/timePositionNaut miles runAvg speedWind from/ knotsBaromVisibWave heightAir tempDewpointWater temp
2016-Dec-09 07:32N 39°37' W 073°53'1313.2
2016-Dec-09 06:33N 39°50' W 073°52'2411.9
2016-Dec-09 04:31N 40°15' W 073°50'9 9.7
2016-Dec-09 03:33N 40°24' W 073°49'1111.3
2016-Dec-09 02:33N 40°31' W 074°00'10 9.6
2016-Dec-09 01:33N 40°39' W 074°08'3 2.7
2016-Dec-09 00:30N 40°41' W 074°09'0 0.0
2016-Dec-08 23:30N 40°41' W 074°09'0 0.0
2016-Dec-08 22:26N 40°41' W 074°09'0 0.0
2016-Dec-08 21:31N 40°41' W 074°09'0 0.0
2016-Dec-08 20:33N 40°41' W 074°09'0 0.1
2016-Dec-08 19:31N 40°41' W 074°09'0 0.0
2016-Dec-08 18:33N 40°41' W 074°09'0 0.0
2016-Dec-08 17:28N 40°41' W 074°09'0 0.0
2016-Dec-08 16:32N 40°41' W 074°09'0 0.0
2016-Dec-08 15:31N 40°41' W 074°09'0 0.0
2016-Dec-08 14:25N 40°41' W 074°09'0 0.0
2016-Dec-08 13:31N 40°41' W 074°09'0 0.0
2016-Dec-08 12:27N 40°41' W 074°09'0 0.0
2016-Dec-08 11:30N 40°41' W 074°09'0 0.0
2016-Dec-08 10:33N 40°41' W 074°09'0 0.0
2016-Dec-08 09:31N 40°41' W 074°09'0 0.0
2016-Dec-08 08:32N 40°41' W 074°09'0 0.0
2016-Dec-08 07:33N 40°41' W 074°09'0 0.0
2016-Dec-08 06:24N 40°41' W 074°09'0 0.0
2016-Dec-08 05:32N 40°41' W 074°09'0 0.0
2016-Dec-08 04:32N 40°41' W 074°09'0 0.0
2016-Dec-08 03:28N 40°41' W 074°09'0 0.0
2016-Dec-08 02:32N 40°41' W 074°09'0 0.0
2016-Dec-08 01:29N 40°41' W 074°09'0 0.0
2016-Dec-08 00:33N 40°41' W 074°09'0 0.0
2016-Dec-07 23:31N 40°41' W 074°09'0 0.0
2016-Dec-07 22:32N 40°41' W 074°09'0 0.0
2016-Dec-07 21:29N 40°41' W 074°09'0 0.0
2016-Dec-07 20:27N 40°41' W 074°09'0 0.0
2016-Dec-07 19:31N 40°41' W 074°09'0 0.0
2016-Dec-07 18:33N 40°41' W 074°09'0 0.0
2016-Dec-07 17:33N 40°41' W 074°09'0 0.0
2016-Dec-07 16:32N 40°41' W 074°09'0 0.0
2016-Dec-07 15:26N 40°41' W 074°09'0 0.0
2016-Dec-07 14:33N 40°41' W 074°09'0 0.0
2016-Dec-07 13:33N 40°41' W 074°09'0 0.2
2016-Dec-07 12:33N 40°41' W 074°09'5 4.8
2016-Dec-07 11:34N 40°39' W 074°03'1010.5
2016-Dec-07 10:34N 40°30' W 073°56'10 9.4
2016-Dec-07 09:30N 40°25' W 073°45'  
Track history (hours):
 
Tides and Currents Weather Stations Pressure Air Temp Water Temp Dewpoint Dewpoint Depression Visibility Wind Speed Wind Dir Waves Ship Positions

MSC Paola

Last reported at 2016-Dec-09 07:32 UTC. Time now 2016-Dec-09 07:48 UTC.
Position N 39°37' W 073°53'.

Length 243 m; draft 9.7 m.

Type: Ship (hazmat cat A). MMSI: 248931000.

Date/timePositionNaut miles runAvg speedWind from/ knotsBaromVisibWave heightAir tempDewpointWater temp
2016-Dec-09 07:32N 39°37' W 073°53'1313.2
2016-Dec-09 06:33N 39°50' W 073°52'2411.9
2016-Dec-09 04:31N 40°15' W 073°50'9 9.7
2016-Dec-09 03:33N 40°24' W 073°49'1111.3
2016-Dec-09 02:33N 40°31' W 074°00'10 9.6
2016-Dec-09 01:33N 40°39' W 074°08'3 2.7
2016-Dec-09 00:30N 40°41' W 074°09'0 0.0
2016-Dec-08 23:30N 40°41' W 074°09'0 0.0
2016-Dec-08 22:26N 40°41' W 074°09'0 0.0
2016-Dec-08 21:31N 40°41' W 074°09'0 0.0
2016-Dec-08 20:33N 40°41' W 074°09'0 0.1
2016-Dec-08 19:31N 40°41' W 074°09'0 0.0
2016-Dec-08 18:33N 40°41' W 074°09'0 0.0
2016-Dec-08 17:28N 40°41' W 074°09'0 0.0
2016-Dec-08 16:32N 40°41' W 074°09'0 0.0
2016-Dec-08 15:31N 40°41' W 074°09'0 0.0
2016-Dec-08 14:25N 40°41' W 074°09'0 0.0
2016-Dec-08 13:31N 40°41' W 074°09'0 0.0
2016-Dec-08 12:27N 40°41' W 074°09'0 0.0
2016-Dec-08 11:30N 40°41' W 074°09'0 0.0
2016-Dec-08 10:33N 40°41' W 074°09'0 0.0
2016-Dec-08 09:31N 40°41' W 074°09'0 0.0
2016-Dec-08 08:32N 40°41' W 074°09'0 0.0
2016-Dec-08 07:33N 40°41' W 074°09'0 0.0
2016-Dec-08 06:24N 40°41' W 074°09'0 0.0
2016-Dec-08 05:32N 40°41' W 074°09'0 0.0
2016-Dec-08 04:32N 40°41' W 074°09'0 0.0
2016-Dec-08 03:28N 40°41' W 074°09'0 0.0
2016-Dec-08 02:32N 40°41' W 074°09'0 0.0
2016-Dec-08 01:29N 40°41' W 074°09'0 0.0
2016-Dec-08 00:33N 40°41' W 074°09'0 0.0
2016-Dec-07 23:31N 40°41' W 074°09'0 0.0
2016-Dec-07 22:32N 40°41' W 074°09'0 0.0
2016-Dec-07 21:29N 40°41' W 074°09'0 0.0
2016-Dec-07 20:27N 40°41' W 074°09'0 0.0
2016-Dec-07 19:31N 40°41' W 074°09'0 0.0
2016-Dec-07 18:33N 40°41' W 074°09'0 0.0
2016-Dec-07 17:33N 40°41' W 074°09'0 0.0
2016-Dec-07 16:32N 40°41' W 074°09'0 0.0
2016-Dec-07 15:26N 40°41' W 074°09'0 0.0
2016-Dec-07 14:33N 40°41' W 074°09'0 0.0
2016-Dec-07 13:33N 40°41' W 074°09'0 0.2
2016-Dec-07 12:33N 40°41' W 074°09'5 4.8
2016-Dec-07 11:34N 40°39' W 074°03'1010.5
2016-Dec-07 10:34N 40°30' W 073°56'10 9.4
2016-Dec-07 09:30N 40°25' W 073°45'  

Dump ship's entire track history